createdAt,value
2023-03-21T00:01:42.244Z,97.56
2023-03-21T00:03:46.750Z,97.65
2023-03-21T00:05:51.855Z,98.22
2023-03-21T00:07:54.682Z,98.06
2023-03-21T00:10:08.620Z,98.51
2023-03-21T00:12:17.229Z,98.71
2023-03-21T00:14:20.217Z,99.85
2023-03-21T00:16:29.836Z,100.00
2023-03-21T00:18:36.655Z,100.00
2023-03-21T00:20:40.624Z,100.00
2023-03-21T00:22:43.761Z,100.00
2023-03-21T00:24:46.512Z,100.00
2023-03-21T00:26:49.157Z,100.00
2023-03-21T00:28:52.059Z,100.00
2023-03-21T00:30:58.837Z,100.00
2023-03-21T00:33:05.869Z,100.00
2023-03-21T00:35:51.597Z,99.96
2023-03-21T00:37:39.205Z,99.87
2023-03-21T00:39:41.885Z,99.95
2023-03-21T00:41:44.634Z,99.32
2023-03-21T00:43:47.302Z,98.99
2023-03-21T00:45:51.157Z,99.82
2023-03-21T00:47:53.852Z,100.00
2023-03-21T00:49:57.244Z,99.28
2023-03-21T00:52:14.644Z,99.58
2023-03-21T00:54:19.949Z,99.21
2023-03-21T00:56:23.253Z,97.42
2023-03-21T00:58:26.156Z,97.40
2023-03-21T01:00:28.886Z,98.29
2023-03-21T01:02:31.537Z,96.63
2023-03-21T01:04:35.395Z,95.61
2023-03-21T01:06:40.052Z,96.52
2023-03-21T01:08:52.284Z,97.25
2023-03-21T01:10:57.155Z,97.21
2023-03-21T01:13:00.229Z,98.84
2023-03-21T01:15:02.881Z,99.60
2023-03-21T01:17:06.554Z,100.00
2023-03-21T01:19:18.449Z,100.00
2023-03-21T01:21:27.699Z,97.30
2023-03-21T01:23:30.641Z,95.14
2023-03-21T01:25:33.283Z,96.11
2023-03-21T01:27:37.260Z,99.91
2023-03-21T01:29:39.877Z,100.00
2023-03-21T01:31:42.565Z,100.00
2023-03-21T01:33:46.033Z,100.00
2023-03-21T01:35:55.197Z,99.61
2023-03-21T01:38:02.871Z,100.00
2023-03-21T01:40:07.052Z,100.00
2023-03-21T01:42:13.693Z,99.90
2023-03-21T01:44:19.098Z,100.00
2023-03-21T01:46:51.453Z,100.00
2023-03-21T01:49:03.391Z,99.34
2023-03-21T01:51:07.283Z,99.83
2023-03-21T01:53:10.110Z,98.65
2023-03-21T01:55:14.795Z,98.04
2023-03-21T01:57:25.861Z,96.42
2023-03-21T01:59:37.778Z,96.22
2023-03-21T02:01:42.276Z,96.99
2023-03-21T02:03:51.297Z,97.45
2023-03-21T02:06:00.248Z,100.00
2023-03-21T02:08:02.950Z,98.52
2023-03-21T02:10:09.860Z,97.97
2023-03-21T02:12:12.692Z,98.30
2023-03-21T02:14:26.759Z,97.37
2023-03-21T02:16:43.194Z,97.82
2023-03-21T02:18:56.590Z,98.10
2023-03-21T02:21:26.827Z,97.07
2023-03-21T02:24:06.250Z,98.07
2023-03-21T02:26:42.063Z,98.84
2023-03-21T02:28:50.313Z,99.93
2023-03-21T02:31:29.504Z,99.70
2023-03-21T02:34:07.687Z,100.00
2023-03-21T02:36:25.656Z,100.00
2023-03-21T02:38:38.353Z,100.00
2023-03-21T02:40:43.085Z,100.00
2023-03-21T02:43:01.392Z,100.00
2023-03-21T02:45:10.379Z,100.00
2023-03-21T02:47:16.667Z,100.00
2023-03-21T02:49:26.026Z,100.00
2023-03-21T02:51:32.017Z,100.00
2023-03-21T02:53:41.348Z,100.00
2023-03-21T02:55:45.619Z,100.00
2023-03-21T02:57:52.506Z,100.00
2023-03-21T03:00:02.375Z,100.00
2023-03-21T03:02:08.285Z,100.00
2023-03-21T03:04:22.387Z,100.00
2023-03-21T03:06:30.388Z,100.00
2023-03-21T03:08:56.303Z,100.00
2023-03-21T03:11:15.426Z,100.00
2023-03-21T03:13:33.248Z,100.00
2023-03-21T03:15:45.538Z,100.00
2023-03-21T03:17:53.551Z,100.00
2023-03-21T03:20:16.397Z,100.00
2023-03-21T03:22:26.505Z,100.00
2023-03-21T03:24:34.051Z,100.00
2023-03-21T03:26:40.756Z,100.00
2023-03-21T03:28:45.744Z,100.00
2023-03-21T03:31:05.495Z,100.00
2023-03-21T03:33:12.014Z,100.00
2023-03-21T03:35:17.426Z,100.00
2023-03-21T03:37:26.246Z,100.00
2023-03-21T03:39:36.651Z,100.00
2023-03-21T03:42:05.934Z,100.00
2023-03-21T03:44:07.297Z,100.00
2023-03-21T03:46:14.891Z,100.00
2023-03-21T03:48:26.156Z,100.00
2023-03-21T03:50:32.605Z,100.00
2023-03-21T03:52:50.009Z,100.00
2023-03-21T03:55:00.002Z,100.00
2023-03-21T03:57:03.466Z,100.00
2023-03-21T03:59:07.318Z,100.00
2023-03-21T04:01:10.909Z,100.00
2023-03-21T04:03:14.636Z,100.00
2023-03-21T04:05:21.207Z,100.00
2023-03-21T04:07:25.074Z,100.00
2023-03-21T04:09:42.627Z,100.00
2023-03-21T04:11:47.505Z,100.00
2023-03-21T04:13:50.409Z,100.00
2023-03-21T04:15:53.048Z,100.00
2023-03-21T04:17:55.799Z,100.00
2023-03-21T04:20:10.985Z,100.00
2023-03-21T04:22:17.047Z,100.00
2023-03-21T04:24:19.691Z,100.00
2023-03-21T04:26:22.346Z,100.00
2023-03-21T04:28:26.399Z,100.00
2023-03-21T04:30:29.070Z,100.00
2023-03-21T04:32:33.892Z,100.00
2023-03-21T04:34:40.194Z,100.00
2023-03-21T04:36:45.670Z,100.00
2023-03-21T04:38:48.565Z,100.00
2023-03-21T04:40:51.342Z,100.00
2023-03-21T04:42:53.968Z,100.00
2023-03-21T04:44:57.906Z,100.00
2023-03-21T04:47:00.533Z,100.00
2023-03-21T04:49:03.775Z,100.00
2023-03-21T04:51:06.945Z,100.00
2023-03-21T04:53:09.535Z,100.00
2023-03-21T04:55:12.118Z,100.00
2023-03-21T04:57:14.875Z,100.00
2023-03-21T04:59:17.728Z,100.00
2023-03-21T05:01:21.671Z,100.00
2023-03-21T05:03:24.320Z,100.00
2023-03-21T05:05:27.040Z,100.00
2023-03-21T05:07:32.645Z,100.00
2023-03-21T05:09:35.399Z,100.00
2023-03-21T05:11:40.259Z,100.00
2023-03-21T05:13:42.873Z,100.00
2023-03-21T05:15:45.511Z,100.00
2023-03-21T05:17:49.613Z,100.00
2023-03-21T05:19:53.231Z,100.00
2023-03-21T05:21:55.854Z,100.00
2023-03-21T05:23:58.506Z,100.00
2023-03-21T05:26:01.132Z,100.00
2023-03-21T05:28:03.767Z,100.00
2023-03-21T05:30:09.352Z,100.00
2023-03-21T05:32:12.033Z,100.00
2023-03-21T05:34:16.055Z,100.00
2023-03-21T05:36:18.819Z,100.00
2023-03-21T05:38:21.829Z,100.00
2023-03-21T05:40:24.514Z,100.00
2023-03-21T05:42:27.226Z,100.00
2023-03-21T05:44:29.795Z,100.00
2023-03-21T05:46:32.453Z,100.00
2023-03-21T05:48:35.900Z,100.00
2023-03-21T05:50:41.245Z,100.00
2023-03-21T05:52:43.898Z,100.00
2023-03-21T05:54:46.507Z,100.00
2023-03-21T05:56:49.182Z,100.00
2023-03-21T05:58:51.810Z,100.00
2023-03-21T06:00:54.424Z,100.00
2023-03-21T06:02:57.087Z,100.00
2023-03-21T06:04:59.779Z,100.00
2023-03-21T06:07:03.883Z,100.00
2023-03-21T06:09:07.322Z,100.00
2023-03-21T06:11:24.194Z,100.00
2023-03-21T06:13:26.868Z,100.00
2023-03-21T06:15:29.647Z,100.00
2023-03-21T06:17:32.396Z,100.00
2023-03-21T06:19:35.026Z,100.00
2023-03-21T06:21:37.762Z,100.00
2023-03-21T06:23:41.774Z,100.00
2023-03-21T06:25:44.348Z,100.00
2023-03-21T06:27:47.009Z,100.00
2023-03-21T06:29:49.866Z,100.00
2023-03-21T06:31:52.530Z,100.00
2023-03-21T06:33:55.216Z,100.00
2023-03-21T06:35:59.708Z,100.00
2023-03-21T06:38:02.473Z,100.00
2023-03-21T06:40:08.690Z,100.00
2023-03-21T06:42:11.553Z,100.00
2023-03-21T06:44:14.235Z,100.00
2023-03-21T06:46:16.908Z,100.00
2023-03-21T06:48:19.558Z,100.00
2023-03-21T06:50:22.208Z,100.00
2023-03-21T06:52:24.877Z,100.00
2023-03-21T06:54:27.597Z,100.00
2023-03-21T06:56:31.605Z,100.00
2023-03-21T06:58:34.484Z,100.00
2023-03-21T07:00:37.213Z,100.00
2023-03-21T07:02:39.914Z,100.00
2023-03-21T07:04:42.876Z,100.00
2023-03-21T07:06:45.517Z,100.00
2023-03-21T07:08:48.524Z,100.00
2023-03-21T07:10:51.211Z,99.44
2023-03-21T07:12:55.425Z,97.02
2023-03-21T07:14:58.262Z,92.66
2023-03-21T07:17:01.349Z,91.43
2023-03-21T07:19:04.366Z,91.86
2023-03-21T07:21:07.812Z,91.72
2023-03-21T07:23:10.766Z,89.82
2023-03-21T07:25:13.720Z,86.43
2023-03-21T07:27:16.870Z,86.96
2023-03-21T07:29:23.169Z,84.88
2023-03-21T07:31:26.884Z,83.45
2023-03-21T07:33:29.577Z,83.54
2023-03-21T07:35:32.393Z,81.14
2023-03-21T07:37:37.553Z,80.20
2023-03-21T07:39:40.791Z,78.59
2023-03-21T07:41:43.449Z,81.71
2023-03-21T07:43:46.095Z,84.52
2023-03-21T07:45:50.082Z,86.96
2023-03-21T07:47:52.835Z,85.02
2023-03-21T07:49:55.457Z,83.89
2023-03-21T07:51:59.614Z,81.12
2023-03-21T07:54:02.736Z,80.01
2023-03-21T07:56:06.272Z,79.14
2023-03-21T07:58:08.942Z,82.13
2023-03-21T08:00:13.654Z,79.72
2023-03-21T08:02:18.525Z,76.37
2023-03-21T08:04:21.242Z,75.77
2023-03-21T08:06:24.151Z,73.93
2023-03-21T08:08:26.765Z,72.37
2023-03-21T08:10:29.580Z,73.45
2023-03-21T08:12:32.254Z,73.63
2023-03-21T08:14:34.901Z,74.28
2023-03-21T08:16:37.665Z,74.05
2023-03-21T08:18:42.775Z,74.63
2023-03-21T08:20:45.600Z,72.62
2023-03-21T08:22:48.848Z,70.74
2023-03-21T08:24:51.460Z,65.44
2023-03-21T08:26:54.078Z,61.92
2023-03-21T08:28:56.669Z,60.29
2023-03-21T08:30:59.323Z,60.16
2023-03-21T08:33:02.417Z,59.12
2023-03-21T08:35:10.030Z,60.37
2023-03-21T08:37:12.746Z,57.15
2023-03-21T08:39:15.393Z,58.36
2023-03-21T08:41:19.252Z,56.25
2023-03-21T08:43:21.927Z,59.01
2023-03-21T08:45:25.403Z,60.29
2023-03-21T08:47:28.045Z,56.97
2023-03-21T08:49:30.897Z,55.06
2023-03-21T08:51:37.522Z,52.14
2023-03-21T08:53:41.515Z,51.90
2023-03-21T08:55:45.463Z,51.29
2023-03-21T08:57:48.583Z,55.05
2023-03-21T08:59:51.386Z,53.30
2023-03-21T09:01:54.141Z,52.42
2023-03-21T09:03:56.777Z,52.54
2023-03-21T09:06:00.676Z,54.12
2023-03-21T09:08:05.943Z,55.36
2023-03-21T09:10:25.890Z,54.44
2023-03-21T09:12:28.599Z,51.24
2023-03-21T09:14:31.355Z,50.66
2023-03-21T09:16:34.649Z,51.45
2023-03-21T09:18:48.722Z,46.54
2023-03-21T09:20:51.812Z,46.20
2023-03-21T09:22:54.782Z,46.94
2023-03-21T09:24:59.303Z,49.87
2023-03-21T09:27:02.044Z,47.78
2023-03-21T09:29:05.904Z,47.20
2023-03-21T09:31:11.316Z,45.57
2023-03-21T09:33:25.390Z,49.84
2023-03-21T09:35:28.514Z,50.64
2023-03-21T09:37:32.635Z,52.48
2023-03-21T09:39:35.552Z,55.69
2023-03-21T09:41:58.851Z,56.30
2023-03-21T09:44:12.699Z,56.43
2023-03-21T09:46:25.869Z,54.70
2023-03-21T09:48:46.898Z,51.97
2023-03-21T09:50:53.819Z,51.58
2023-03-21T09:52:58.427Z,46.69
2023-03-21T09:55:01.389Z,44.61
2023-03-21T09:57:15.954Z,46.19
2023-03-21T09:59:26.268Z,44.78
2023-03-21T10:01:33.025Z,45.77
2023-03-21T10:03:36.675Z,43.80
2023-03-21T10:05:45.832Z,44.30
2023-03-21T10:07:54.308Z,51.09
2023-03-21T10:09:58.708Z,51.70
2023-03-21T10:12:04.320Z,47.27
2023-03-21T10:14:17.862Z,46.65
2023-03-21T10:16:27.645Z,46.45
2023-03-21T10:18:31.979Z,46.94
2023-03-21T10:20:37.193Z,47.93
2023-03-21T10:22:40.261Z,48.28
2023-03-21T10:24:42.972Z,49.13
2023-03-21T10:26:47.646Z,51.98
2023-03-21T10:28:53.413Z,47.45
2023-03-21T10:30:59.831Z,45.93
2023-03-21T10:33:06.002Z,45.31
2023-03-21T10:35:14.260Z,48.04
2023-03-21T10:37:17.602Z,50.89
2023-03-21T10:39:28.163Z,51.70
2023-03-21T10:41:30.898Z,50.82
2023-03-21T10:43:37.714Z,50.60
2023-03-21T10:45:40.948Z,50.35
2023-03-21T10:47:49.897Z,51.39
2023-03-21T10:50:09.898Z,50.35
2023-03-21T10:52:16.480Z,52.33
2023-03-21T10:54:21.296Z,50.05
2023-03-21T10:56:27.664Z,51.42
2023-03-21T10:58:33.308Z,50.32
2023-03-21T11:00:41.187Z,49.40
2023-03-21T11:02:49.905Z,49.14
2023-03-21T11:04:54.346Z,51.46
2023-03-21T11:07:01.203Z,51.98
2023-03-21T11:09:09.616Z,52.00
2023-03-21T11:11:22.193Z,53.01
2023-03-21T11:13:27.094Z,51.82
2023-03-21T11:15:33.004Z,52.01
2023-03-21T11:17:36.672Z,51.59
2023-03-21T11:19:40.610Z,52.33
2023-03-21T11:21:44.243Z,52.00
2023-03-21T11:23:49.688Z,52.21
2023-03-21T11:25:52.958Z,50.94
2023-03-21T11:27:56.880Z,50.75
2023-03-21T11:30:02.791Z,50.42
2023-03-21T11:32:12.281Z,48.45
2023-03-21T11:34:27.377Z,47.26
2023-03-21T11:36:37.967Z,47.31
2023-03-21T11:38:41.138Z,47.21
2023-03-21T11:40:53.788Z,47.78
2023-03-21T11:42:58.063Z,49.43
2023-03-21T11:45:11.435Z,49.79
2023-03-21T11:47:14.185Z,49.86
2023-03-21T11:49:16.914Z,48.87
2023-03-21T11:51:28.029Z,48.24
2023-03-21T11:53:41.683Z,48.46
2023-03-21T11:56:01.977Z,47.97
2023-03-21T11:58:24.088Z,48.91
2023-03-21T12:00:32.923Z,48.61
2023-03-21T12:02:55.368Z,48.33
2023-03-21T12:05:05.104Z,46.21
2023-03-21T12:07:17.561Z,47.02
2023-03-21T12:09:30.497Z,47.29
2023-03-21T12:11:44.222Z,47.77
2023-03-21T12:13:56.227Z,48.14
2023-03-21T12:16:11.801Z,47.19
2023-03-21T12:18:30.385Z,47.18
2023-03-21T12:20:44.798Z,46.80
2023-03-21T12:23:02.339Z,47.31
2023-03-21T12:25:12.105Z,46.87
2023-03-21T12:27:24.949Z,47.71
2023-03-21T12:29:41.781Z,46.94
2023-03-21T12:31:53.520Z,47.35
2023-03-21T12:34:11.144Z,46.90
2023-03-21T12:36:28.764Z,46.89
2023-03-21T12:38:41.488Z,44.87
2023-03-21T12:40:59.519Z,45.67
2023-03-21T12:43:34.151Z,46.27
2023-03-21T12:45:47.054Z,46.68
2023-03-21T12:47:56.062Z,45.09
2023-03-21T12:50:02.675Z,44.89
2023-03-21T12:52:06.784Z,44.79
2023-03-21T12:54:17.442Z,44.57
2023-03-21T12:56:26.329Z,44.77
2023-03-21T12:58:32.183Z,44.47
2023-03-21T13:00:39.757Z,45.27
2023-03-21T13:02:45.821Z,45.11
2023-03-21T13:05:01.354Z,45.28
2023-03-21T13:07:09.584Z,44.15
2023-03-21T13:09:23.318Z,44.61
2023-03-21T13:11:33.218Z,44.35
2023-03-21T13:13:41.178Z,44.00
2023-03-21T13:15:53.781Z,44.19
2023-03-21T13:18:03.383Z,44.62
2023-03-21T13:20:19.160Z,45.45
2023-03-21T13:22:27.295Z,45.45
2023-03-21T13:24:39.408Z,45.11
2023-03-21T13:26:49.832Z,45.65
2023-03-21T13:28:53.316Z,45.00
2023-03-21T13:31:18.107Z,43.87
2023-03-21T13:33:25.885Z,44.10
2023-03-21T13:35:37.640Z,46.11
2023-03-21T13:37:42.999Z,45.91
2023-03-21T13:39:47.830Z,46.20
2023-03-21T13:41:53.188Z,45.69
2023-03-21T13:44:06.457Z,46.38
2023-03-21T13:46:11.283Z,46.37
2023-03-21T13:48:29.768Z,44.36
2023-03-21T13:50:50.661Z,42.38
2023-03-21T13:53:23.645Z,42.39
2023-03-21T13:55:30.651Z,41.34
2023-03-21T13:57:40.749Z,42.17
2023-03-21T13:59:45.605Z,41.75
2023-03-21T14:02:00.525Z,41.78
2023-03-21T14:04:16.032Z,39.94
2023-03-21T14:06:20.043Z,39.17
2023-03-21T14:08:36.524Z,40.90
2023-03-21T14:10:44.334Z,38.56
2023-03-21T14:12:49.427Z,39.01
2023-03-21T14:14:55.211Z,38.82
2023-03-21T14:16:58.952Z,38.21
2023-03-21T14:19:04.661Z,38.81
2023-03-21T14:21:09.389Z,39.56
2023-03-21T14:23:17.285Z,40.22
2023-03-21T14:25:21.877Z,40.77
2023-03-21T14:27:28.719Z,42.82
2023-03-21T14:29:35.265Z,43.58
2023-03-21T14:31:39.950Z,43.46
2023-03-21T14:33:46.641Z,42.86
2023-03-21T14:35:50.983Z,43.04
2023-03-21T14:37:53.681Z,42.61
2023-03-21T14:40:01.050Z,42.94
2023-03-21T14:42:06.529Z,43.02
2023-03-21T14:44:16.732Z,42.09
2023-03-21T14:46:22.042Z,42.75
2023-03-21T14:48:31.719Z,42.74
2023-03-21T14:50:39.711Z,42.67
2023-03-21T14:52:44.401Z,44.41
2023-03-21T14:54:48.865Z,48.84
2023-03-21T14:56:54.396Z,53.18
2023-03-21T14:58:57.478Z,55.39
2023-03-21T15:01:04.154Z,55.56
2023-03-21T15:03:08.479Z,55.99
2023-03-21T15:05:20.295Z,56.39
2023-03-21T15:07:28.733Z,56.12
2023-03-21T15:09:34.540Z,55.85
2023-03-21T15:11:39.076Z,56.49
2023-03-21T15:13:52.577Z,56.15
2023-03-21T15:15:55.586Z,56.02
2023-03-21T15:18:03.953Z,56.30
2023-03-21T15:20:11.716Z,56.65
2023-03-21T15:22:21.909Z,56.35
2023-03-21T15:24:29.433Z,56.60
2023-03-21T15:26:32.696Z,56.75
2023-03-21T15:28:36.309Z,56.52
2023-03-21T15:30:39.035Z,56.35
2023-03-21T15:32:41.721Z,56.42
2023-03-21T15:34:45.798Z,57.07
2023-03-21T15:36:56.137Z,56.83
2023-03-21T15:39:02.664Z,57.50
2023-03-21T15:41:15.553Z,56.92
2023-03-21T15:43:19.715Z,56.93
2023-03-21T15:45:25.551Z,57.27
2023-03-21T15:47:42.202Z,57.34
2023-03-21T15:49:44.941Z,57.52
2023-03-21T15:51:53.558Z,57.33
2023-03-21T15:53:56.417Z,57.97
2023-03-21T15:56:01.849Z,58.13
2023-03-21T15:58:09.780Z,58.12
2023-03-21T16:00:22.881Z,59.23
2023-03-21T16:02:30.676Z,60.00
2023-03-21T16:04:33.343Z,60.28
2023-03-21T16:06:38.498Z,60.23
2023-03-21T16:08:47.623Z,61.17
2023-03-21T16:10:50.452Z,61.98
2023-03-21T16:12:53.185Z,62.15
2023-03-21T16:14:56.442Z,63.06
2023-03-21T16:16:59.552Z,63.24
2023-03-21T16:19:03.168Z,63.99
2023-03-21T16:21:06.053Z,63.98
2023-03-21T16:23:10.883Z,64.53
2023-03-21T16:25:15.369Z,65.17
2023-03-21T16:27:19.827Z,64.07
2023-03-21T16:29:22.560Z,65.08
2023-03-21T16:31:27.038Z,65.37
2023-03-21T16:33:29.651Z,65.39
2023-03-21T16:35:32.303Z,66.42
2023-03-21T16:37:34.928Z,66.89
2023-03-21T16:39:37.673Z,67.63
2023-03-21T16:41:41.771Z,67.95
2023-03-21T16:43:46.157Z,68.08
2023-03-21T16:45:48.901Z,68.67
2023-03-21T16:47:52.063Z,69.34
2023-03-21T16:49:55.669Z,68.86
2023-03-21T16:51:58.349Z,69.21
2023-03-21T16:54:01.541Z,69.64
2023-03-21T16:56:05.252Z,69.79
2023-03-21T16:58:09.371Z,70.11
2023-03-21T17:00:16.666Z,70.11
2023-03-21T17:02:19.327Z,70.19
2023-03-21T17:04:22.462Z,70.55
2023-03-21T17:06:27.476Z,71.03
2023-03-21T17:08:30.540Z,71.80
2023-03-21T17:10:33.958Z,70.90
2023-03-21T17:12:37.368Z,71.03
2023-03-21T17:14:41.984Z,71.18
2023-03-21T17:16:45.763Z,71.70
2023-03-21T17:18:49.131Z,71.99
2023-03-21T17:20:51.860Z,71.92
2023-03-21T17:22:54.502Z,72.29
2023-03-21T17:24:57.102Z,71.70
2023-03-21T17:27:01.305Z,72.63
2023-03-21T17:29:04.980Z,73.77
2023-03-21T17:31:14.051Z,73.68
2023-03-21T17:33:16.758Z,72.72
2023-03-21T17:35:20.051Z,72.93
2023-03-21T17:37:25.955Z,72.38
2023-03-21T17:39:28.890Z,71.46
2023-03-21T17:41:31.554Z,71.83
2023-03-21T17:43:34.182Z,71.58
2023-03-21T17:45:36.841Z,73.10
2023-03-21T17:47:41.543Z,73.13
2023-03-21T17:49:44.215Z,72.16
2023-03-21T17:51:47.023Z,72.89
2023-03-21T17:53:51.839Z,73.07
2023-03-21T17:55:54.599Z,72.98
2023-03-21T17:57:57.440Z,73.21
2023-03-21T18:00:00.394Z,74.24
2023-03-21T18:02:03.013Z,75.87
2023-03-21T18:04:07.211Z,75.52
2023-03-21T18:06:16.029Z,74.79
2023-03-21T18:08:18.678Z,74.81
2023-03-21T18:10:24.741Z,75.79
2023-03-21T18:12:27.607Z,76.90
2023-03-21T18:14:30.776Z,76.31
2023-03-21T18:16:33.524Z,75.76
2023-03-21T18:18:36.264Z,75.09
2023-03-21T18:20:51.638Z,75.94
2023-03-21T18:22:55.408Z,75.70
2023-03-21T18:24:58.893Z,75.68
2023-03-21T18:27:02.671Z,76.03
2023-03-21T18:31:28.247Z,76.08
2023-03-21T18:33:30.967Z,76.16
2023-03-21T18:35:33.608Z,77.09
2023-03-21T18:37:37.614Z,78.84
2023-03-21T18:39:40.785Z,77.60
2023-03-21T18:41:43.817Z,76.50
2023-03-21T18:44:06.092Z,76.49
2023-03-21T18:46:09.447Z,76.74
2023-03-21T18:48:13.240Z,75.94
2023-03-21T18:50:16.413Z,74.68
2023-03-21T18:52:19.228Z,76.11
2023-03-21T18:54:24.027Z,75.91
2023-03-21T18:57:20.071Z,76.66
2023-03-21T18:58:49.300Z,76.05
2023-03-21T19:00:53.449Z,75.90
2023-03-21T19:03:13.882Z,77.78
2023-03-21T19:05:22.576Z,78.83
2023-03-21T19:07:25.295Z,78.90
2023-03-21T19:09:32.151Z,79.71
2023-03-21T19:11:34.921Z,79.92
2023-03-21T19:13:37.767Z,80.65
2023-03-21T19:15:41.423Z,80.81
2023-03-21T19:20:07.676Z,80.60
2023-03-21T19:22:10.579Z,80.10
2023-03-21T19:24:27.099Z,80.23
2023-03-21T19:26:32.041Z,80.74
2023-03-21T19:28:34.700Z,80.22
2023-03-21T19:30:37.712Z,80.20
2023-03-21T19:32:40.686Z,79.84
2023-03-21T19:34:43.358Z,78.76
2023-03-21T19:36:51.447Z,79.38
2023-03-21T19:38:54.894Z,80.47
2023-03-21T19:41:00.032Z,80.50
2023-03-21T19:43:21.692Z,80.23
2023-03-21T19:45:26.707Z,80.71
2023-03-21T19:47:29.335Z,80.71
2023-03-21T19:50:00.748Z,79.71
2023-03-21T19:51:54.900Z,79.98
2023-03-21T19:53:57.794Z,81.38
2023-03-21T19:56:03.696Z,81.43
2023-03-21T19:58:08.029Z,80.74
2023-03-21T20:00:11.728Z,83.28
2023-03-21T20:02:34.567Z,83.15
2023-03-21T20:04:37.073Z,82.01
2023-03-21T20:06:39.760Z,83.55
2023-03-21T20:09:13.576Z,82.13
2023-03-21T20:11:05.680Z,82.78
2023-03-21T20:13:09.662Z,83.63
2023-03-21T20:15:19.308Z,82.66
2023-03-21T20:17:23.648Z,83.30
2023-03-21T20:19:27.138Z,82.58
2023-03-21T20:21:36.570Z,82.41
2023-03-21T20:23:49.352Z,82.14
2023-03-21T20:25:52.048Z,83.08
2023-03-21T20:28:12.646Z,84.40
2023-03-21T20:30:20.017Z,85.30
2023-03-21T20:32:22.698Z,84.97
2023-03-21T20:34:25.489Z,84.21
2023-03-21T20:36:43.887Z,84.20
2023-03-21T20:38:46.992Z,84.97
2023-03-21T20:40:49.655Z,85.63
2023-03-21T20:42:52.633Z,84.96
2023-03-21T20:45:00.587Z,85.58
2023-03-21T20:47:06.322Z,86.36
2023-03-21T20:49:08.939Z,88.73
2023-03-21T20:53:36.545Z,89.00
2023-03-21T20:55:39.629Z,89.77
2023-03-21T20:57:42.745Z,89.12
2023-03-21T20:59:46.000Z,89.66
2023-03-21T21:01:48.816Z,89.72
2023-03-21T21:03:54.258Z,90.71
2023-03-21T21:05:56.917Z,88.24
2023-03-21T21:07:59.654Z,88.74
2023-03-21T21:10:02.269Z,88.65
2023-03-21T21:12:07.411Z,87.86
2023-03-21T21:14:10.708Z,87.48
2023-03-21T21:16:14.153Z,87.50
2023-03-21T21:18:16.829Z,88.51
2023-03-21T21:20:20.934Z,88.55
2023-03-21T21:22:23.573Z,88.72
2023-03-21T21:24:26.212Z,89.73
2023-03-21T21:26:29.046Z,88.51
2023-03-21T21:28:32.136Z,87.53
2023-03-21T21:30:38.398Z,87.48
2023-03-21T21:32:41.883Z,87.34
2023-03-21T21:34:44.741Z,86.84
2023-03-21T21:36:49.622Z,87.78
2023-03-21T21:38:52.975Z,87.91
2023-03-21T21:41:00.206Z,88.59
2023-03-21T21:43:03.744Z,88.45
2023-03-21T21:45:08.551Z,87.64
2023-03-21T21:47:11.241Z,88.13
2023-03-21T21:49:13.896Z,88.59
2023-03-21T21:51:18.001Z,88.01
2023-03-21T21:53:22.987Z,87.63
2023-03-21T21:55:25.704Z,86.94
2023-03-21T21:57:30.445Z,87.10
2023-03-21T21:59:33.932Z,87.08
2023-03-21T22:01:38.818Z,86.04
2023-03-21T22:03:42.247Z,85.64
2023-03-21T22:05:45.356Z,85.82
2023-03-21T22:07:48.183Z,87.22
2023-03-21T22:09:52.314Z,86.46
2023-03-21T22:11:56.614Z,87.41
2023-03-21T22:13:59.291Z,86.58
2023-03-21T22:16:02.057Z,86.93
2023-03-21T22:18:05.144Z,87.06
2023-03-21T22:20:09.830Z,86.75
2023-03-21T22:22:12.492Z,87.51
2023-03-21T22:24:15.167Z,86.75
2023-03-21T22:26:19.249Z,85.63
2023-03-21T22:28:25.525Z,84.57
2023-03-21T22:30:28.213Z,84.44
2023-03-21T22:32:31.110Z,83.22
2023-03-21T22:34:33.748Z,84.22
2023-03-21T22:36:36.389Z,84.49
2023-03-21T22:38:39.093Z,86.27
2023-03-21T22:40:42.216Z,85.03
2023-03-21T22:42:46.400Z,84.01
2023-03-21T22:44:49.070Z,82.58
2023-03-21T22:46:51.716Z,84.31
2023-03-21T22:48:54.382Z,84.62
2023-03-21T22:50:57.633Z,84.55
2023-03-21T22:53:00.317Z,84.90
2023-03-21T22:55:02.940Z,85.26
2023-03-21T22:57:06.344Z,84.91
2023-03-21T22:59:10.356Z,85.77
2023-03-21T23:01:13.047Z,86.09
2023-03-21T23:03:16.694Z,85.55
2023-03-21T23:05:19.792Z,85.59
2023-03-21T23:07:22.428Z,85.54
2023-03-21T23:09:25.590Z,86.41
2023-03-21T23:11:28.218Z,87.36
2023-03-21T23:13:31.498Z,87.06
2023-03-21T23:15:35.712Z,87.48
2023-03-21T23:17:39.225Z,87.73
2023-03-21T23:19:41.801Z,88.07
2023-03-21T23:21:44.794Z,88.09
2023-03-21T23:23:49.718Z,88.89
2023-03-21T23:25:52.702Z,89.79
2023-03-21T23:27:55.864Z,89.77
2023-03-21T23:29:58.531Z,90.40
2023-03-21T23:32:02.512Z,90.43
2023-03-21T23:34:06.057Z,91.03
2023-03-21T23:36:10.764Z,93.40
2023-03-21T23:38:13.401Z,92.91
2023-03-21T23:40:16.023Z,94.44
2023-03-21T23:42:18.873Z,94.82
2023-03-21T23:44:21.481Z,95.92
2023-03-21T23:46:24.115Z,96.27
2023-03-21T23:48:28.844Z,96.46
2023-03-21T23:50:31.430Z,96.01
2023-03-21T23:52:34.398Z,97.02
2023-03-21T23:54:37.278Z,97.79
2023-03-21T23:56:39.960Z,98.00
2023-03-21T23:58:42.619Z,97.91
